Terminal Aerodrome Forecast
Issued by NWS Portland, OR

Home | Current Version | Previous Version | Text Only | Print | Product List | Glossary On
Versions: 1 2 3 4 5 6 7 8 9 10 11 12 13 14 15 16 17 18 19 20 21 22 23 24 25 26 27 28 29 30 31 32 33 34 35 36 37 38 39 40 41 42 43 44 45 46 47 48 49 50
133
FTUS46 KPQR 051833 AAA
TAFPDX
TAF AMD
KPDX 051833Z 0519/0618 20011KT 3SM -SHRASN BKN008 OVC011
     FM051930 21005KT P6SM -SHRA SCT015 BKN025
     FM052200 19005KT P6SM -SHRA SCT025 BKN050
     FM060200 12003KT P6SM VCSH SCT025 BKN050
     FM060800 11004KT 4SM -SHSN FEW012 SCT018 BKN025
     FM061600 06004KT P6SM VCSH SCT025 BKN035=

USA.gov is the U.S. government's official web portal to all federal, state and local government web resources and services.